Time;durP1;ratioP1;P1;durP2;ratioP2;P2;SDS_P1;SDS_P2;PMS_P1;PMS_P2;Temp;Humidity;BMP_temperature;BMP_pressure;BME280_temperature;BME280_humidity;BME280_pressure;Samples;Min_cycle;Max_cycle;Signal;HPM_P1;HPM_P2
2024/04/09 00:01:59;;;;;;;11.93;1.90;;;19.80;96.20;;;;;;5215051;27;20038;-69
2024/04/09 00:04:27;;;;;;;17.17;3.13;;;19.70;96.90;;;;;;5238370;27;20455;-69
2024/04/09 00:06:52;;;;;;;7.82;1.70;;;19.70;96.60;;;;;;5235217;27;20023;-69
2024/04/09 00:09:20;;;;;;;10.80;1.83;;;19.80;96.40;;;;;;5211990;27;20019;-69
2024/04/09 00:11:48;;;;;;;11.38;2.25;;;19.80;96.10;;;;;;5207148;27;20545;-70
2024/04/09 00:14:14;;;;;;;7.85;1.83;;;19.90;96.10;;;;;;5206610;27;19999;-70
2024/04/09 00:16:41;;;;;;;12.00;2.00;;;19.90;96.80;;;;;;5206205;27;20007;-70
2024/04/09 00:19:08;;;;;;;6.10;1.85;;;19.80;97.70;;;;;;5207033;27;20012;-71
2024/04/09 00:21:34;;;;;;;3.08;1.70;;;19.80;97.40;;;;;;5261760;27;20102;-70
2024/04/09 00:24:00;;;;;;;8.50;2.70;;;19.70;97.70;;;;;;5231812;27;20007;-69
2024/04/09 00:26:29;;;;;;;10.38;1.83;;;19.60;97.60;;;;;;5237527;27;20050;-69
2024/04/09 00:28:55;;;;;;;6.43;1.88;;;19.50;97.70;;;;;;5243482;27;20018;-69
2024/04/09 00:31:21;;;;;;;4.47;1.67;;;19.60;97.70;;;;;;5266867;27;19999;-70
2024/04/09 00:33:47;;;;;;;7.10;2.85;;;19.60;97.60;;;;;;5211003;27;20082;-69
2024/04/09 00:36:13;;;;;;;8.60;3.28;;;19.60;97.80;;;;;;5217869;27;20012;-70
2024/04/09 00:38:41;;;;;;;11.00;2.17;;;19.60;97.80;;;;;;5212659;27;20000;-70
2024/04/09 00:41:10;;;;;;;7.53;1.48;;;19.50;97.80;;;;;;5258205;27;20003;-70
2024/04/09 00:43:37;;;;;;;9.65;2.35;;;19.50;98.20;;;;;;5226415;27;20030;-70
2024/04/09 00:46:05;;;;;;;8.60;2.08;;;19.50;99.90;;;;;;5209304;27;20068;-70
2024/04/09 00:48:31;;;;;;;10.23;2.53;;;19.40;99.90;;;;;;5265031;27;20000;-70
2024/04/09 00:50:57;;;;;;;12.93;2.33;;;19.30;99.90;;;;;;5258241;27;20003;-70
2024/04/09 00:53:24;;;;;;;11.85;1.23;;;19.10;99.90;;;;;;5269510;27;20031;-70
2024/04/09 00:55:50;;;;;;;8.90;2.25;;;18.80;99.90;;;;;;5235651;27;20010;-69
2024/04/09 00:58:18;;;;;;;12.32;2.45;;;18.80;99.90;;;;;;5255701;27;20112;-69
2024/04/09 01:00:43;;;;;;;11.65;3.47;;;18.60;99.90;;;;;;5229398;27;20107;-69
2024/04/09 01:03:12;;;;;;;13.50;2.10;;;18.70;99.90;;;;;;5230490;27;20449;-72
2024/04/09 01:05:39;;;;;;;12.18;2.80;;;18.70;99.90;;;;;;5230531;27;20417;-69
2024/04/09 01:08:06;;;;;;;5.10;1.92;;;18.40;99.90;;;;;;5228035;27;20003;-70
2024/04/09 01:10:34;;;;;;;8.52;2.17;;;18.50;99.90;;;;;;5232558;27;20018;-70
2024/04/09 01:13:00;;;;;;;8.35;2.20;;;18.50;99.90;;;;;;5208466;27;20011;-69
2024/04/09 01:15:26;;;;;;;5.75;1.38;;;18.60;99.90;;;;;;5239153;27;20026;-70
2024/04/09 01:17:51;;;;;;;8.40;2.47;;;18.60;99.90;;;;;;5241190;27;20003;-70
2024/04/09 01:20:17;;;;;;;12.82;2.75;;;18.50;99.90;;;;;;5236403;27;20017;-70
2024/04/09 01:22:43;;;;;;;6.72;1.73;;;18.50;99.90;;;;;;5241657;27;20050;-70
2024/04/09 01:25:10;;;;;;;12.52;2.00;;;18.50;99.90;;;;;;5216647;27;20075;-70
2024/04/09 01:27:38;;;;;;;12.05;1.80;;;18.60;99.90;;;;;;5221654;27;19999;-70
2024/04/09 01:30:08;;;;;;;15.88;3.45;;;18.70;99.90;;;;;;5236130;27;20003;-70
2024/04/09 01:32:36;;;;;;;9.23;2.33;;;18.70;99.90;;;;;;5210348;27;20035;-70
2024/04/09 01:35:06;;;;;;;12.75;2.88;;;18.80;99.90;;;;;;5230174;27;20019;-70
2024/04/09 01:37:38;;;;;;;5.20;1.70;;;18.80;99.90;;;;;;5248978;27;20009;-70
2024/04/09 01:40:04;;;;;;;8.05;1.73;;;18.80;99.90;;;;;;5244937;27;19998;-70
2024/04/09 01:42:30;;;;;;;9.85;2.03;;;18.90;99.60;;;;;;5241916;27;20009;-70
2024/04/09 01:44:56;;;;;;;6.00;2.17;;;18.90;99.90;;;;;;5240235;27;20447;-70
2024/04/09 01:47:22;;;;;;;8.70;2.88;;;18.90;99.90;;;;;;5228250;27;20026;-68
2024/04/09 01:49:48;;;;;;;9.13;1.60;;;18.90;99.90;;;;;;5226697;27;20027;-69
2024/04/09 01:52:14;;;;;;;9.05;3.05;;;18.90;99.90;;;;;;5229535;27;20000;-69
2024/04/09 01:54:49;;;;;;;11.77;3.17;;;19.10;98.60;;;;;;5224580;27;20016;-69
2024/04/09 01:57:16;;;;;;;23.20;2.70;;;19.20;98.20;;;;;;5256742;27;20015;-69
2024/04/09 01:59:41;;;;;;;11.85;2.33;;;19.30;97.90;;;;;;5210164;27;20396;-69
2024/04/09 02:02:10;;;;;;;8.85;2.35;;;19.30;97.50;;;;;;5222919;27;20000;-69
2024/04/09 02:04:36;;;;;;;13.60;4.13;;;19.40;97.80;;;;;;5250593;27;19995;-69
2024/04/09 02:07:02;;;;;;;13.13;3.28;;;19.30;99.90;;;;;;5241551;27;19999;-69
2024/04/09 02:09:28;;;;;;;13.05;2.55;;;19.30;99.10;;;;;;5255388;27;20003;-69
2024/04/09 02:11:54;;;;;;;10.90;2.63;;;19.40;96.60;;;;;;5268243;27;20069;-69
2024/04/09 02:14:20;;;;;;;10.60;2.08;;;19.50;96.30;;;;;;5236260;27;20062;-69
2024/04/09 02:16:46;;;;;;;8.75;2.47;;;19.50;97.60;;;;;;5226154;27;20063;-69
2024/04/09 02:19:12;;;;;;;10.32;2.13;;;19.40;98.30;;;;;;5229752;27;20008;-69
2024/04/09 02:21:38;;;;;;;10.18;2.53;;;19.20;98.80;;;;;;5255621;27;20345;-69
2024/04/09 02:24:04;;;;;;;17.38;2.95;;;19.00;98.50;;;;;;5237746;27;19999;-69
2024/04/09 02:26:31;;;;;;;13.57;1.52;;;19.20;97.70;;;;;;5224917;27;20452;-69
2024/04/09 02:28:58;;;;;;;9.63;2.33;;;19.20;97.60;;;;;;5234745;27;20011;-70
2024/04/09 02:31:43;;;;;;;8.52;2.47;;;19.20;97.80;;;;;;5451584;22;20085;-69
2024/04/09 02:34:09;;;;;;;5.93;1.92;;;19.00;99.00;;;;;;5277592;27;20017;-69
2024/04/09 02:36:36;;;;;;;7.43;1.95;;;18.80;99.60;;;;;;5271117;27;20006;-70
2024/04/09 02:39:05;;;;;;;17.15;3.28;;;18.90;99.90;;;;;;5275237;27;20328;-70
2024/04/09 02:41:31;;;;;;;21.77;2.60;;;18.80;99.70;;;;;;5272321;27;20316;-69
2024/04/09 02:43:57;;;;;;;12.27;2.42;;;18.80;98.20;;;;;;5275008;27;20019;-70
2024/04/09 02:46:22;;;;;;;16.30;3.20;;;18.80;98.10;;;;;;5270602;27;20061;-70
2024/04/09 02:48:48;;;;;;;9.23;1.92;;;18.90;97.80;;;;;;5274576;27;20006;-70
2024/04/09 02:51:15;;;;;;;9.55;2.20;;;18.90;97.60;;;;;;5270377;27;20084;-69
2024/04/09 02:53:40;;;;;;;17.70;2.40;;;18.90;97.10;;;;;;5289059;27;20106;-70
2024/04/09 02:56:11;;;;;;;20.80;2.97;;;19.00;96.80;;;;;;5283709;27;20342;-70
2024/04/09 02:58:37;;;;;;;10.98;2.92;;;19.10;96.40;;;;;;5303094;27;20112;-70
2024/04/09 03:01:12;;;;;;;10.25;2.55;;;19.10;98.30;;;;;;5287095;27;20436;-70
2024/04/09 03:03:39;;;;;;;10.98;3.40;;;19.00;99.70;;;;;;5303531;27;20009;-70
2024/04/09 03:06:12;;;;;;;5.40;2.17;;;18.90;98.80;;;;;;5299464;27;20009;-70
2024/04/09 03:08:39;;;;;;;16.27;2.15;;;18.90;98.50;;;;;;5317892;26;19993;-70
2024/04/09 03:11:19;;;;;;;9.30;2.00;;;18.90;99.80;;;;;;5278461;27;20002;-69
2024/04/09 03:13:49;;;;;;;12.27;2.45;;;19.10;96.50;;;;;;5291498;27;20017;-70
2024/04/09 03:16:20;;;;;;;12.02;2.08;;;19.20;96.20;;;;;;5300943;27;20006;-69
2024/04/09 03:18:48;;;;;;;9.98;2.17;;;19.20;96.50;;;;;;5288721;27;20013;-69
2024/04/09 03:21:14;;;;;;;10.30;2.25;;;19.30;96.20;;;;;;5295513;27;20459;-69
2024/04/09 03:23:41;;;;;;;7.32;1.63;;;19.40;95.90;;;;;;5305959;26;20015;-70
2024/04/09 03:26:10;;;;;;;24.30;2.55;;;19.60;95.30;;;;;;5293092;27;20080;-69
2024/04/09 03:28:35;;;;;;;18.63;2.42;;;19.70;94.80;;;;;;5277954;27;20013;-70
2024/04/09 03:31:03;;;;;;;5.55;1.75;;;19.80;95.00;;;;;;5300451;27;20005;-69
2024/04/09 03:33:29;;;;;;;6.75;1.90;;;19.80;95.20;;;;;;5292688;27;20010;-69
2024/04/09 03:35:57;;;;;;;9.73;1.67;;;19.80;95.10;;;;;;5279412;26;20500;-70
2024/04/09 03:38:23;;;;;;;7.50;1.77;;;19.60;95.40;;;;;;5281335;27;20009;-70
2024/04/09 03:41:06;;;;;;;11.60;1.88;;;19.60;94.10;;;;;;5289012;27;20053;-70
2024/04/09 03:43:33;;;;;;;9.30;3.40;;;19.70;94.30;;;;;;5284309;27;20005;-69
2024/04/09 03:46:14;;;;;;;9.02;2.03;;;19.90;94.10;;;;;;5272207;27;20002;-71
2024/04/09 03:48:45;;;;;;;8.50;2.03;;;20.00;93.40;;;;;;5267407;27;20335;-68
2024/04/09 03:51:17;;;;;;;18.05;2.92;;;20.00;93.80;;;;;;5244350;27;19999;-69
2024/04/09 03:53:47;;;;;;;5.30;1.40;;;20.00;93.80;;;;;;5274481;27;20018;-68
2024/04/09 03:56:16;;;;;;;22.20;2.70;;;19.90;94.20;;;;;;5283677;27;20034;-69
2024/04/09 03:58:49;;;;;;;15.60;2.83;;;19.80;94.30;;;;;;5283963;26;20002;-68
2024/04/09 04:01:16;;;;;;;11.45;2.33;;;19.90;93.90;;;;;;5275455;26;20014;-69
2024/04/09 04:03:46;;;;;;;11.23;1.88;;;19.90;94.00;;;;;;5282422;27;20029;-69
2024/04/09 04:06:12;;;;;;;19.20;2.67;;;20.00;94.00;;;;;;5273934;27;20006;-69
2024/04/09 04:08:41;;;;;;;9.25;2.55;;;19.90;94.00;;;;;;5295808;26;20016;-69
2024/04/09 04:11:09;;;;;;;13.20;2.10;;;19.90;94.30;;;;;;5300940;27;20413;-70
2024/04/09 04:13:37;;;;;;;13.68;2.47;;;19.80;94.60;;;;;;5307987;27;20342;-69
2024/04/09 04:16:11;;;;;;;9.30;2.03;;;19.70;94.80;;;;;;5282567;27;20016;-69
2024/04/09 04:18:42;;;;;;;9.07;2.63;;;19.70;94.70;;;;;;5311659;26;20017;-69
2024/04/09 04:21:13;;;;;;;3.47;1.50;;;19.60;94.40;;;;;;5289241;26;20013;-69
2024/04/09 04:23:44;;;;;;;6.63;1.90;;;19.60;94.50;;;;;;5276741;27;20076;-69
2024/04/09 04:26:24;;;;;;;6.30;1.75;;;19.70;94.10;;;;;;5246068;27;20478;-69
2024/04/09 04:28:52;;;;;;;3.93;0.67;;;19.70;93.90;;;;;;5307887;26;20072;-69
2024/04/09 04:31:20;;;;;;;5.88;1.13;;;19.70;93.80;;;;;;5277524;27;20234;-69
2024/04/09 04:33:47;;;;;;;4.68;0.90;;;19.80;93.90;;;;;;5273554;27;20102;-70
2024/04/09 04:36:17;;;;;;;5.75;1.55;;;19.80;93.80;;;;;;5277374;27;20031;-69
2024/04/09 04:38:45;;;;;;;5.53;0.68;;;19.80;93.70;;;;;;5278110;27;20343;-70
2024/04/09 04:41:12;;;;;;;6.28;1.35;;;19.80;93.70;;;;;;5275452;27;20435;-70
2024/04/09 04:43:39;;;;;;;3.03;1.10;;;19.80;93.70;;;;;;5267269;27;20013;-70
2024/04/09 04:46:06;;;;;;;2.63;0.70;;;19.80;93.60;;;;;;5279405;27;20359;-70
2024/04/09 04:48:33;;;;;;;8.15;1.42;;;19.70;93.70;;;;;;5281069;27;20006;-70
2024/04/09 04:50:59;;;;;;;5.25;1.33;;;19.70;93.90;;;;;;5274597;27;20002;-70
2024/04/09 04:53:25;;;;;;;3.28;1.20;;;19.70;94.00;;;;;;5273086;27;20008;-72
2024/04/09 04:55:51;;;;;;;1.13;0.60;;;19.60;94.00;;;;;;5275744;27;20018;-73
2024/04/09 04:58:20;;;;;;;2.22;1.60;;;19.60;94.30;;;;;;5273802;27;19999;-71
2024/04/09 05:00:46;;;;;;;1.63;0.73;;;19.60;94.40;;;;;;5275625;27;19998;-71
2024/04/09 05:03:12;;;;;;;5.63;1.20;;;19.50;94.40;;;;;;5273938;27;20030;-71
2024/04/09 05:05:38;;;;;;;2.60;0.55;;;19.50;94.50;;;;;;5277430;27;20068;-71
2024/04/09 05:08:05;;;;;;;7.97;0.80;;;19.40;94.60;;;;;;5268925;27;19999;-70
2024/04/09 05:10:31;;;;;;;2.20;0.60;;;19.40;94.70;;;;;;5278935;27;19998;-70
2024/04/09 05:12:57;;;;;;;2.90;1.10;;;19.40;94.90;;;;;;5281416;27;20002;-70
2024/04/09 05:15:24;;;;;;;4.03;1.02;;;19.30;94.90;;;;;;5247391;27;20018;-70
2024/04/09 05:17:51;;;;;;;9.23;0.65;;;19.30;95.20;;;;;;5278678;27;19998;-70
2024/04/09 05:20:18;;;;;;;7.70;1.10;;;19.20;95.20;;;;;;5278853;27;20076;-71
2024/04/09 05:22:46;;;;;;;7.43;1.55;;;19.20;95.30;;;;;;5278870;27;20017;-70
2024/04/09 05:25:13;;;;;;;3.20;0.50;;;19.20;95.60;;;;;;5304110;26;20006;-70
2024/04/09 05:27:40;;;;;;;4.28;0.85;;;19.20;95.50;;;;;;5257391;27;20247;-71
2024/04/09 05:30:09;;;;;;;2.42;0.38;;;19.20;95.80;;;;;;5309356;27;20009;-70
2024/04/09 05:32:35;;;;;;;4.53;1.00;;;19.10;96.00;;;;;;5267684;27;20002;-70
2024/04/09 05:35:02;;;;;;;1.92;0.60;;;19.00;96.20;;;;;;5299212;27;20002;-72
2024/04/09 05:37:29;;;;;;;4.55;0.75;;;19.00;96.40;;;;;;5280470;26;20027;-70
2024/04/09 05:39:55;;;;;;;4.07;1.23;;;19.00;96.50;;;;;;5295348;27;20331;-70
2024/04/09 05:42:20;;;;;;;1.05;0.40;;;18.90;96.80;;;;;;5291889;26;20010;-70
2024/04/09 05:44:47;;;;;;;3.03;1.73;;;18.90;97.20;;;;;;5288562;27;20416;-70
2024/04/09 05:47:13;;;;;;;1.27;0.45;;;18.80;97.40;;;;;;5273334;27;20313;-69
2024/04/09 05:49:39;;;;;;;2.58;0.85;;;18.80;97.80;;;;;;5291281;26;20077;-71
2024/04/09 05:52:05;;;;;;;1.45;1.23;;;18.70;97.90;;;;;;5285011;26;20077;-71
2024/04/09 05:54:31;;;;;;;2.28;0.90;;;18.50;98.40;;;;;;5299151;27;20016;-70
2024/04/09 05:56:57;;;;;;;3.92;0.77;;;18.40;98.50;;;;;;5287247;27;20037;-68
2024/04/09 05:59:23;;;;;;;3.28;0.93;;;18.50;98.60;;;;;;5294657;27;20076;-60
2024/04/09 06:01:51;;;;;;;2.92;0.82;;;18.50;98.80;;;;;;5283197;26;20080;-62
2024/04/09 06:04:16;;;;;;;3.80;0.80;;;18.40;99.00;;;;;;5266843;27;20010;-60
2024/04/09 06:06:43;;;;;;;2.28;0.80;;;18.50;99.20;;;;;;5301044;27;20018;-60
2024/04/09 06:09:09;;;;;;;3.15;0.90;;;18.50;99.30;;;;;;5286425;27;20481;-63
2024/04/09 06:11:35;;;;;;;2.42;1.00;;;18.30;99.80;;;;;;5260999;27;20002;-63
2024/04/09 06:14:01;;;;;;;3.15;0.70;;;18.10;99.90;;;;;;5286244;26;20346;-71
2024/04/09 06:16:27;;;;;;;5.40;1.05;;;18.10;99.90;;;;;;5284714;27;20002;-69
2024/04/09 06:18:52;;;;;;;3.28;0.68;;;18.00;99.90;;;;;;5285053;27;20020;-71
2024/04/09 06:21:18;;;;;;;1.80;1.10;;;18.10;99.90;;;;;;5291223;27;20123;-71
2024/04/09 06:23:47;;;;;;;1.95;0.95;;;18.10;99.90;;;;;;5278468;27;20002;-71
2024/04/09 06:26:14;;;;;;;6.57;1.48;;;18.10;99.90;;;;;;5274648;27;20006;-71
2024/04/09 06:28:40;;;;;;;2.25;0.73;;;18.00;99.90;;;;;;5275070;27;20009;-70
2024/04/09 06:31:06;;;;;;;5.43;0.93;;;17.90;99.90;;;;;;5276205;27;19998;-71
2024/04/09 06:33:33;;;;;;;1.33;1.05;;;17.80;99.90;;;;;;5266023;27;20455;-71
2024/04/09 06:35:58;;;;;;;1.25;0.70;;;17.70;99.90;;;;;;5277691;27;20017;-70
2024/04/09 06:38:24;;;;;;;2.50;0.82;;;17.70;99.90;;;;;;5282053;27;20002;-71
2024/04/09 06:40:53;;;;;;;2.42;0.75;;;17.70;99.90;;;;;;5294659;27;20005;-70
2024/04/09 06:43:20;;;;;;;0.90;0.35;;;17.40;99.90;;;;;;5287825;26;20470;-70
2024/04/09 06:45:46;;;;;;;7.32;0.82;;;17.10;99.90;;;;;;5309285;26;20002;-70
2024/04/09 06:48:12;;;;;;;2.30;0.40;;;17.00;99.90;;;;;;5294946;27;20041;-71
2024/04/09 06:50:38;;;;;;;0.82;0.38;;;16.90;99.90;;;;;;5306779;27;20522;-71
2024/04/09 06:53:03;;;;;;;1.30;0.60;;;16.90;99.90;;;;;;5294479;27;20478;-71
2024/04/09 06:55:29;;;;;;;0.30;0.28;;;17.00;99.90;;;;;;5306728;27;20677;-71
2024/04/09 06:57:55;;;;;;;0.13;0.10;;;17.10;99.90;;;;;;5295045;27;20013;-71
2024/04/09 07:00:21;;;;;;;1.75;0.45;;;17.00;99.90;;;;;;5293582;27;20335;-71
2024/04/09 07:02:47;;;;;;;0.65;0.40;;;16.90;99.90;;;;;;5280278;27;20013;-71
2024/04/09 07:05:13;;;;;;;1.52;0.77;;;16.80;99.90;;;;;;5246169;27;20348;-71
2024/04/09 07:07:39;;;;;;;1.25;0.98;;;16.70;99.90;;;;;;5262414;27;20009;-72
2024/04/09 07:10:06;;;;;;;1.58;0.90;;;16.60;99.90;;;;;;5293468;27;20017;-71
2024/04/09 07:12:32;;;;;;;2.00;1.10;;;16.60;99.90;;;;;;5249761;27;20006;-71
2024/04/09 07:15:00;;;;;;;1.33;0.73;;;16.40;99.90;;;;;;5271650;27;20034;-71
2024/04/09 07:17:25;;;;;;;1.45;0.95;;;16.20;99.90;;;;;;5244678;27;20002;-70
2024/04/09 07:19:55;;;;;;;2.50;0.90;;;16.20;99.90;;;;;;5293445;27;20485;-71
2024/04/09 07:22:21;;;;;;;0.40;0.32;;;16.10;99.90;;;;;;5309645;26;20002;-71
2024/04/09 07:24:47;;;;;;;17.90;1.20;;;16.00;99.90;;;;;;5287879;27;20009;-70
2024/04/09 07:27:13;;;;;;;0.82;0.55;;;15.90;99.90;;;;;;5299300;27;20011;-70
2024/04/09 07:29:39;;;;;;;0.68;0.40;;;15.80;99.90;;;;;;5279996;26;19999;-70
2024/04/09 07:32:07;;;;;;;0.17;0.13;;;15.70;99.90;;;;;;5308840;26;20076;-72
2024/04/09 07:34:34;;;;;;;0.45;0.38;;;15.50;99.90;;;;;;5298961;27;20017;-70
2024/04/09 07:37:00;;;;;;;5.43;0.90;;;15.30;99.90;;;;;;5302174;27;20002;-70
2024/04/09 07:39:26;;;;;;;3.10;1.08;;;15.10;99.90;;;;;;5297997;27;20013;-70
2024/04/09 07:41:52;;;;;;;1.65;0.35;;;14.90;99.90;;;;;;5308616;27;20075;-70
2024/04/09 07:44:18;;;;;;;0.32;0.20;;;14.80;99.90;;;;;;5301983;26;20020;-71
2024/04/09 07:46:48;;;;;;;0.20;0.20;;;14.50;99.90;;;;;;5315613;26;20020;-70
2024/04/09 07:49:15;;;;;;;6.60;0.63;;;14.40;99.90;;;;;;5301837;26;20058;-70
2024/04/09 07:51:41;;;;;;;0.25;0.20;;;14.30;99.90;;;;;;5307236;26;19998;-69
2024/04/09 07:54:07;;;;;;;0.32;0.20;;;14.10;99.90;;;;;;5299139;26;20002;-69
2024/04/09 07:56:33;;;;;;;0.80;0.57;;;14.10;99.90;;;;;;5297159;27;20021;-70
2024/04/09 07:59:00;;;;;;;0.43;0.43;;;14.10;99.90;;;;;;5268636;27;20444;-69
2024/04/09 08:01:25;;;;;;;0.77;0.40;;;14.10;99.90;;;;;;5289078;27;20375;-70
2024/04/09 08:03:51;;;;;;;0.65;0.50;;;14.00;99.90;;;;;;5272301;27;20006;-69
2024/04/09 08:06:17;;;;;;;1.67;0.50;;;13.90;99.90;;;;;;5272236;27;20006;-71
2024/04/09 08:08:43;;;;;;;2.17;0.70;;;14.00;99.90;;;;;;5304031;26;20021;-70
2024/04/09 08:11:10;;;;;;;0.60;0.47;;;14.10;99.90;;;;;;5308754;27;20009;-70
2024/04/09 08:13:37;;;;;;;1.42;0.65;;;14.10;99.90;;;;;;5298749;27;20012;-70
2024/04/09 08:16:03;;;;;;;0.95;0.82;;;14.10;99.90;;;;;;5306126;27;20005;-70
2024/04/09 08:18:29;;;;;;;1.20;0.57;;;14.00;99.90;;;;;;5292571;27;20746;-70
2024/04/09 08:20:55;;;;;;;1.25;0.60;;;14.10;99.90;;;;;;5279910;27;20001;-69
2024/04/09 08:23:21;;;;;;;1.90;0.70;;;14.00;99.90;;;;;;5280984;27;20562;-70
2024/04/09 08:25:49;;;;;;;0.80;0.50;;;14.00;99.90;;;;;;5300905;27;20002;-69
2024/04/09 08:28:18;;;;;;;1.02;0.40;;;14.00;99.90;;;;;;5298249;27;20092;-70
2024/04/09 08:30:48;;;;;;;0.17;0.17;;;14.10;99.90;;;;;;5271978;27;20006;-69
2024/04/09 08:33:14;;;;;;;0.00;0.00;;;14.00;99.90;;;;;;5281481;26;20002;-69
2024/04/09 08:35:50;;;;;;;0.50;0.10;;;13.80;99.80;;;;;;5286231;26;20016;-69
2024/04/09 08:38:21;;;;;;;0.63;0.30;;;13.80;99.30;;;;;;5276583;27;20002;-69
2024/04/09 08:40:47;;;;;;;1.20;0.20;;;13.80;99.40;;;;;;5302606;26;20516;-69
2024/04/09 08:43:16;;;;;;;0.15;0.10;;;13.80;99.40;;;;;;5301779;26;20017;-69
2024/04/09 08:45:43;;;;;;;0.47;0.20;;;13.70;99.50;;;;;;5301452;27;20097;-70
2024/04/09 08:48:12;;;;;;;4.93;0.75;;;13.70;99.60;;;;;;5288820;27;19994;-70
2024/04/09 08:50:39;;;;;;;2.05;0.30;;;13.70;99.90;;;;;;5244683;27;20081;-69
2024/04/09 08:53:07;;;;;;;8.02;0.35;;;13.70;99.90;;;;;;5290432;27;20395;-69
2024/04/09 08:55:35;;;;;;;0.63;0.28;;;13.70;99.60;;;;;;5270757;27;20440;-69
2024/04/09 08:58:01;;;;;;;1.08;0.13;;;13.60;99.00;;;;;;5288972;26;20002;-69
2024/04/09 09:00:27;;;;;;;0.95;0.28;;;13.60;98.70;;;;;;5289663;27;20002;-69
2024/04/09 09:02:52;;;;;;;1.58;0.85;;;13.60;98.80;;;;;;5308795;27;19998;-70
2024/04/09 09:05:21;;;;;;;1.20;0.30;;;13.50;98.80;;;;;;5296195;26;20016;-70
2024/04/09 09:07:57;;;;;;;2.13;0.35;;;13.60;98.90;;;;;;5302706;27;20016;-70
2024/04/09 09:10:23;;;;;;;0.98;0.55;;;13.60;98.40;;;;;;5295914;27;19998;-70
2024/04/09 09:13:02;;;;;;;0.77;0.10;;;13.60;98.50;;;;;;5310427;27;20070;-70
2024/04/09 09:15:31;;;;;;;2.13;0.10;;;13.60;98.80;;;;;;5276946;27;20320;-70
2024/04/09 09:17:57;;;;;;;0.70;0.10;;;13.60;98.90;;;;;;5283042;27;20730;-70
2024/04/09 09:20:24;;;;;;;0.55;0.25;;;13.50;98.60;;;;;;5292558;27;20049;-69
2024/04/09 09:22:54;;;;;;;1.25;0.28;;;13.50;98.40;;;;;;5303077;27;20042;-70
2024/04/09 09:25:25;;;;;;;0.47;0.20;;;13.50;98.80;;;;;;5298756;27;20020;-70
2024/04/09 09:28:08;;;;;;;0.25;0.20;;;13.40;99.30;;;;;;5288666;27;20010;-70
2024/04/09 09:30:41;;;;;;;0.20;0.10;;;13.50;99.40;;;;;;5274556;27;20038;-70
2024/04/09 09:33:31;;;;;;;0.80;0.10;;;13.60;99.60;;;;;;5273132;27;20352;-70
2024/04/09 09:35:57;;;;;;;0.47;0.35;;;13.50;99.30;;;;;;5262431;27;20006;-70
2024/04/09 09:38:26;;;;;;;2.80;0.40;;;13.40;99.70;;;;;;5271186;27;20021;-70
2024/04/09 09:40:53;;;;;;;2.10;0.30;;;13.50;99.90;;;;;;5293058;26;20017;-70
2024/04/09 09:43:24;;;;;;;0.20;0.15;;;13.30;99.90;;;;;;5270410;27;19999;-70
2024/04/09 09:45:50;;;;;;;3.20;0.40;;;13.20;99.90;;;;;;5293315;27;20018;-70
2024/04/09 09:48:19;;;;;;;1.00;0.25;;;13.10;99.90;;;;;;5303126;27;20063;-70
2024/04/09 09:50:45;;;;;;;0.63;0.17;;;13.10;99.90;;;;;;5275018;27;20018;-69
2024/04/09 09:53:11;;;;;;;0.20;0.20;;;13.00;99.90;;;;;;5250311;27;20002;-70
2024/04/09 09:55:39;;;;;;;1.27;0.35;;;12.90;99.90;;;;;;5299849;26;20100;-69
2024/04/09 09:58:11;;;;;;;1.42;0.40;;;12.80;99.90;;;;;;5284051;27;19998;-69
2024/04/09 10:00:38;;;;;;;0.85;0.20;;;12.70;99.90;;;;;;5299639;26;20001;-69
2024/04/09 10:03:04;;;;;;;5.10;0.60;;;12.60;99.90;;;;;;5307524;27;20528;-69
2024/04/09 10:05:36;;;;;;;0.10;0.10;;;12.50;99.90;;;;;;5303991;27;20021;-69
2024/04/09 10:08:12;;;;;;;0.20;0.20;;;12.60;99.90;;;;;;5300413;27;20001;-69
2024/04/09 10:10:38;;;;;;;0.10;0.10;;;12.50;99.90;;;;;;5302062;27;20338;-69
2024/04/09 10:13:08;;;;;;;1.45;0.22;;;12.60;99.90;;;;;;5301007;27;19998;-69
2024/04/09 10:15:34;;;;;;;0.68;0.22;;;12.60;99.90;;;;;;5305027;27;20001;-69
2024/04/09 10:18:06;;;;;;;2.17;0.30;;;12.50;99.90;;;;;;5306665;27;20004;-69
2024/04/09 10:20:37;;;;;;;0.22;0.10;;;12.40;99.90;;;;;;5304432;27;20075;-69
2024/04/09 10:23:06;;;;;;;0.15;0.10;;;12.40;99.70;;;;;;5307803;26;20338;-70
2024/04/09 10:25:42;;;;;;;0.20;0.20;;;12.50;99.90;;;;;;5274418;27;20037;-70
2024/04/09 10:28:13;;;;;;;0.63;0.10;;;12.40;99.90;;;;;;5286508;27;20002;-69
2024/04/09 10:30:45;;;;;;;;;;;12.30;99.70;;;;;;5304443;27;20006;-69
2024/04/09 10:33:11;;;;;;;2.60;0.10;;;12.20;99.90;;;;;;5302702;27;19927;-69
2024/04/09 10:35:45;;;;;;;0.40;0.30;;;12.20;99.80;;;;;;5283065;26;20006;-69
2024/04/09 10:38:11;;;;;;;4.20;0.35;;;12.20;99.90;;;;;;5285484;27;20456;-70
2024/04/09 10:40:37;;;;;;;4.35;0.52;;;12.10;99.90;;;;;;5269408;27;20057;-69
2024/04/09 10:43:07;;;;;;;0.00;0.00;;;12.20;99.90;;;;;;5292147;27;20072;-70
2024/04/09 10:45:34;;;;;;;0.45;0.17;;;12.30;99.90;;;;;;5274762;27;20016;-69
2024/04/09 10:48:03;;;;;;;5.28;0.10;;;12.30;99.90;;;;;;5306917;27;20005;-69
2024/04/09 10:50:30;;;;;;;3.70;0.22;;;12.30;99.90;;;;;;5323626;26;20462;-70
2024/04/09 10:52:55;;;;;;;1.10;0.60;;;12.30;99.90;;;;;;5307289;27;20001;-70
2024/04/09 10:55:22;;;;;;;0.00;0.00;;;12.20;99.90;;;;;;5272657;27;20438;-70
2024/04/09 10:57:54;;;;;;;0.80;0.38;;;12.20;99.90;;;;;;5276299;27;20017;-70
2024/04/09 11:00:21;;;;;;;0.70;0.20;;;12.10;99.90;;;;;;5279015;26;19997;-70
2024/04/09 11:02:47;;;;;;;0.90;0.10;;;12.00;99.90;;;;;;5309261;27;20042;-70
2024/04/09 11:05:17;;;;;;;0.77;0.20;;;12.00;99.90;;;;;;5284300;26;20483;-70
2024/04/09 11:07:46;;;;;;;1.42;0.45;;;11.90;99.90;;;;;;5296001;27;20011;-70
2024/04/09 11:10:15;;;;;;;0.57;0.30;;;11.80;99.90;;;;;;5275699;27;20052;-70
2024/04/09 11:12:53;;;;;;;1.95;0.17;;;11.90;99.90;;;;;;5309144;26;20040;-70
2024/04/09 11:15:22;;;;;;;3.85;0.80;;;12.00;99.90;;;;;;5285574;27;20003;-70
2024/04/09 11:17:48;;;;;;;1.55;0.85;;;12.00;99.90;;;;;;5287290;27;19998;-70
2024/04/09 11:20:15;;;;;;;0.13;0.10;;;11.90;99.90;;;;;;5297276;27;20012;-70
2024/04/09 11:22:41;;;;;;;0.47;0.20;;;11.90;99.90;;;;;;5291982;27;20005;-70
2024/04/09 11:25:14;;;;;;;0.22;0.10;;;11.80;99.90;;;;;;5286668;27;19998;-70
2024/04/09 11:27:41;;;;;;;0.10;0.10;;;11.80;99.90;;;;;;5294135;27;19998;-70
2024/04/09 11:30:08;;;;;;;1.27;0.20;;;11.90;99.90;;;;;;5286390;27;20005;-71
2024/04/09 11:32:39;;;;;;;4.05;0.43;;;11.90;99.90;;;;;;5297039;26;20002;-70
2024/04/09 11:35:20;;;;;;;4.32;0.57;;;11.90;99.90;;;;;;5299448;26;20034;-69
2024/04/09 11:37:57;;;;;;;0.60;0.20;;;11.80;99.90;;;;;;5292318;27;19998;-69
2024/04/09 11:40:28;;;;;;;0.03;0.03;;;11.80;99.90;;;;;;5287065;27;20467;-70
2024/04/09 11:42:57;;;;;;;0.60;0.13;;;11.70;99.90;;;;;;5301450;27;20386;-70
2024/04/09 11:45:27;;;;;;;0.20;0.20;;;11.60;99.90;;;;;;5266307;27;20022;-69
2024/04/09 11:47:53;;;;;;;1.85;0.57;;;11.60;99.90;;;;;;5279125;27;20009;-70
2024/04/09 11:50:19;;;;;;;0.32;0.20;;;11.70;99.90;;;;;;5286676;27;20005;-69
2024/04/09 11:52:45;;;;;;;2.67;0.40;;;11.70;99.90;;;;;;5305752;27;20494;-69
2024/04/09 11:55:11;;;;;;;0.00;0.00;;;11.70;99.90;;;;;;5297653;27;20033;-69
2024/04/09 11:57:41;;;;;;;2.60;0.22;;;11.70;99.90;;;;;;5306427;27;20002;-69
2024/04/09 12:00:14;;;;;;;0.20;0.20;;;11.70;99.90;;;;;;5284943;26;20005;-69
2024/04/09 12:02:45;;;;;;;0.70;0.60;;;11.70;99.90;;;;;;5294206;26;19999;-69
2024/04/09 12:05:13;;;;;;;1.65;0.30;;;11.70;99.90;;;;;;5297931;27;20430;-69
2024/04/09 12:07:40;;;;;;;3.72;1.00;;;11.80;99.90;;;;;;5293942;26;20012;-69
2024/04/09 12:10:07;;;;;;;0.50;0.30;;;11.80;99.90;;;;;;5293191;26;19998;-69
2024/04/09 12:12:34;;;;;;;0.43;0.20;;;11.80;99.90;;;;;;5308090;26;20462;-69
2024/04/09 12:15:01;;;;;;;2.17;0.40;;;11.60;99.90;;;;;;5292201;27;20015;-70
2024/04/09 12:17:27;;;;;;;0.82;0.32;;;11.70;99.90;;;;;;5307023;27;20080;-69
2024/04/09 12:19:53;;;;;;;0.60;0.38;;;11.70;99.90;;;;;;5280125;27;20021;-69
2024/04/09 12:22:19;;;;;;;0.50;0.50;;;11.70;99.90;;;;;;5311473;26;20002;-69
2024/04/09 12:24:45;;;;;;;0.00;0.00;;;11.60;99.90;;;;;;5288969;26;20045;-69
2024/04/09 12:27:11;;;;;;;0.20;0.20;;;11.60;99.90;;;;;;5285750;27;20080;-69
2024/04/09 12:29:37;;;;;;;2.45;0.52;;;11.50;99.90;;;;;;5275927;27;19998;-69
2024/04/09 12:32:06;;;;;;;0.28;0.20;;;11.40;99.90;;;;;;5289800;27;20002;-69
2024/04/09 12:34:32;;;;;;;0.20;0.20;;;11.40;99.90;;;;;;5260102;27;20013;-69
2024/04/09 12:36:58;;;;;;;1.48;0.43;;;11.40;99.90;;;;;;5304728;26;20072;-69
2024/04/09 12:39:25;;;;;;;1.88;0.55;;;11.50;99.90;;;;;;5295350;27;20018;-69
2024/04/09 12:41:52;;;;;;;0.93;0.47;;;11.30;99.90;;;;;;5311609;26;20434;-69
2024/04/09 12:44:18;;;;;;;0.55;0.30;;;11.30;99.90;;;;;;5262181;27;20478;-69
2024/04/09 12:46:44;;;;;;;0.20;0.10;;;11.30;99.90;;;;;;5293210;27;20109;-69
2024/04/09 12:49:09;;;;;;;0.65;0.30;;;11.40;99.90;;;;;;5299721;26;20002;-68